sensor_id;sensor_type;location;lat;lon;timestamp;P1;durP1;ratioP1;P2;durP2;ratioP2
76035;SDS011;64732;56.314;44.068;2023-12-20T00:00:48;8.13;;;3.72;;
76035;SDS011;64732;56.314;44.068;2023-12-20T00:03:12;6.43;;;2.53;;
76035;SDS011;64732;56.314;44.068;2023-12-20T00:05:33;8.98;;;3.30;;
76035;SDS011;64732;56.314;44.068;2023-12-20T00:07:54;7.32;;;3.22;;
76035;SDS011;64732;56.314;44.068;2023-12-20T00:10:15;11.02;;;4.57;;
76035;SDS011;64732;56.314;44.068;2023-12-20T00:12:36;5.97;;;2.75;;
76035;SDS011;64732;56.314;44.068;2023-12-20T00:14:58;7.57;;;3.40;;
76035;SDS011;64732;56.314;44.068;2023-12-20T00:17:19;7.93;;;3.45;;
76035;SDS011;64732;56.314;44.068;2023-12-20T00:19:42;14.15;;;4.10;;
76035;SDS011;64732;56.314;44.068;2023-12-20T00:22:04;4.68;;;2.20;;
76035;SDS011;64732;56.314;44.068;2023-12-20T00:24:25;7.70;;;2.67;;
76035;SDS011;64732;56.314;44.068;2023-12-20T00:26:46;9.63;;;4.20;;
76035;SDS011;64732;56.314;44.068;2023-12-20T00:29:07;7.32;;;3.28;;
76035;SDS011;64732;56.314;44.068;2023-12-20T00:31:28;8.38;;;3.20;;
76035;SDS011;64732;56.314;44.068;2023-12-20T00:33:49;9.40;;;4.20;;
76035;SDS011;64732;56.314;44.068;2023-12-20T00:36:12;8.82;;;3.15;;
76035;SDS011;64732;56.314;44.068;2023-12-20T00:38:34;10.88;;;4.50;;
76035;SDS011;64732;56.314;44.068;2023-12-20T00:40:55;8.88;;;3.53;;
76035;SDS011;64732;56.314;44.068;2023-12-20T00:43:16;11.05;;;4.70;;
76035;SDS011;64732;56.314;44.068;2023-12-20T00:45:37;10.52;;;4.07;;
76035;SDS011;64732;56.314;44.068;2023-12-20T00:47:58;5.72;;;2.22;;
76035;SDS011;64732;56.314;44.068;2023-12-20T00:50:19;9.23;;;3.78;;
76035;SDS011;64732;56.314;44.068;2023-12-20T00:52:43;7.03;;;2.80;;
76035;SDS011;64732;56.314;44.068;2023-12-20T00:55:04;7.38;;;3.15;;
76035;SDS011;64732;56.314;44.068;2023-12-20T00:57:27;9.63;;;3.88;;
76035;SDS011;64732;56.314;44.068;2023-12-20T00:59:48;12.68;;;4.15;;
76035;SDS011;64732;56.314;44.068;2023-12-20T01:02:09;8.82;;;3.22;;
76035;SDS011;64732;56.314;44.068;2023-12-20T01:04:30;7.85;;;3.67;;
76035;SDS011;64732;56.314;44.068;2023-12-20T01:06:51;10.60;;;3.75;;
76035;SDS011;64732;56.314;44.068;2023-12-20T01:09:15;5.72;;;3.05;;
76035;SDS011;64732;56.314;44.068;2023-12-20T01:11:36;7.13;;;3.30;;
76035;SDS011;64732;56.314;44.068;2023-12-20T01:13:57;9.95;;;4.50;;
76035;SDS011;64732;56.314;44.068;2023-12-20T01:16:18;9.32;;;4.13;;
76035;SDS011;64732;56.314;44.068;2023-12-20T01:18:40;11.15;;;4.45;;
76035;SDS011;64732;56.314;44.068;2023-12-20T01:21:01;10.05;;;3.45;;
76035;SDS011;64732;56.314;44.068;2023-12-20T01:23:22;8.85;;;3.95;;
76035;SDS011;64732;56.314;44.068;2023-12-20T01:25:46;11.80;;;5.00;;
76035;SDS011;64732;56.314;44.068;2023-12-20T01:28:08;10.63;;;4.28;;
76035;SDS011;64732;56.314;44.068;2023-12-20T01:30:32;7.32;;;3.38;;
76035;SDS011;64732;56.314;44.068;2023-12-20T01:32:53;18.35;;;5.68;;
76035;SDS011;64732;56.314;44.068;2023-12-20T01:35:14;9.57;;;4.20;;
76035;SDS011;64732;56.314;44.068;2023-12-20T01:37:35;10.48;;;4.07;;
76035;SDS011;64732;56.314;44.068;2023-12-20T01:39:56;11.38;;;4.30;;
76035;SDS011;64732;56.314;44.068;2023-12-20T01:42:20;14.63;;;6.32;;
76035;SDS011;64732;56.314;44.068;2023-12-20T01:44:41;14.90;;;5.85;;
76035;SDS011;64732;56.314;44.068;2023-12-20T01:47:02;14.07;;;5.15;;
76035;SDS011;64732;56.314;44.068;2023-12-20T01:49:23;11.35;;;4.72;;
76035;SDS011;64732;56.314;44.068;2023-12-20T01:51:44;12.07;;;5.05;;
76035;SDS011;64732;56.314;44.068;2023-12-20T01:54:05;30.42;;;8.50;;
76035;SDS011;64732;56.314;44.068;2023-12-20T01:56:27;13.63;;;5.15;;
76035;SDS011;64732;56.314;44.068;2023-12-20T01:58:51;21.70;;;8.65;;
76035;SDS011;64732;56.314;44.068;2023-12-20T02:01:12;10.88;;;4.95;;
76035;SDS011;64732;56.314;44.068;2023-12-20T02:03:33;14.90;;;6.18;;
76035;SDS011;64732;56.314;44.068;2023-12-20T02:05:55;12.98;;;4.63;;
76035;SDS011;64732;56.314;44.068;2023-12-20T02:08:16;14.85;;;7.07;;
76035;SDS011;64732;56.314;44.068;2023-12-20T02:10:37;9.10;;;4.22;;
76035;SDS011;64732;56.314;44.068;2023-12-20T02:12:59;14.35;;;6.68;;
76035;SDS011;64732;56.314;44.068;2023-12-20T02:15:22;8.48;;;4.03;;
76035;SDS011;64732;56.314;44.068;2023-12-20T02:17:45;10.13;;;4.57;;
76035;SDS011;64732;56.314;44.068;2023-12-20T02:20:07;7.85;;;3.90;;
76035;SDS011;64732;56.314;44.068;2023-12-20T02:22:31;9.95;;;4.15;;
76035;SDS011;64732;56.314;44.068;2023-12-20T02:24:52;9.10;;;4.65;;
76035;SDS011;64732;56.314;44.068;2023-12-20T02:27:13;10.60;;;4.70;;
76035;SDS011;64732;56.314;44.068;2023-12-20T02:29:36;12.30;;;5.07;;
76035;SDS011;64732;56.314;44.068;2023-12-20T02:31:58;8.10;;;3.38;;
76035;SDS011;64732;56.314;44.068;2023-12-20T02:34:19;10.50;;;5.22;;
76035;SDS011;64732;56.314;44.068;2023-12-20T02:36:40;10.77;;;5.00;;
76035;SDS011;64732;56.314;44.068;2023-12-20T02:39:04;11.18;;;5.20;;
76035;SDS011;64732;56.314;44.068;2023-12-20T02:41:25;8.75;;;3.53;;
76035;SDS011;64732;56.314;44.068;2023-12-20T02:43:47;14.05;;;4.93;;
76035;SDS011;64732;56.314;44.068;2023-12-20T02:46:08;12.57;;;5.72;;
76035;SDS011;64732;56.314;44.068;2023-12-20T02:48:29;12.57;;;5.82;;
76035;SDS011;64732;56.314;44.068;2023-12-20T02:50:51;14.00;;;5.75;;
76035;SDS011;64732;56.314;44.068;2023-12-20T02:53:12;9.90;;;4.38;;
76035;SDS011;64732;56.314;44.068;2023-12-20T02:55:36;10.18;;;4.95;;
76035;SDS011;64732;56.314;44.068;2023-12-20T02:57:57;6.35;;;3.35;;
76035;SDS011;64732;56.314;44.068;2023-12-20T03:00:18;13.55;;;6.13;;
76035;SDS011;64732;56.314;44.068;2023-12-20T03:02:39;15.82;;;5.93;;
76035;SDS011;64732;56.314;44.068;2023-12-20T03:05:00;9.65;;;3.92;;
76035;SDS011;64732;56.314;44.068;2023-12-20T03:07:21;11.10;;;4.63;;
76035;SDS011;64732;56.314;44.068;2023-12-20T03:09:42;15.15;;;6.40;;
76035;SDS011;64732;56.314;44.068;2023-12-20T03:12:07;8.73;;;3.78;;
76035;SDS011;64732;56.314;44.068;2023-12-20T03:14:28;11.50;;;4.88;;
76035;SDS011;64732;56.314;44.068;2023-12-20T03:16:49;12.43;;;5.30;;
76035;SDS011;64732;56.314;44.068;2023-12-20T03:19:11;8.30;;;3.72;;
76035;SDS011;64732;56.314;44.068;2023-12-20T03:21:32;10.65;;;4.38;;
76035;SDS011;64732;56.314;44.068;2023-12-20T03:23:53;14.02;;;5.43;;
76035;SDS011;64732;56.314;44.068;2023-12-20T03:26:14;8.90;;;3.95;;
76035;SDS011;64732;56.314;44.068;2023-12-20T03:28:38;10.57;;;4.32;;
76035;SDS011;64732;56.314;44.068;2023-12-20T03:31:01;15.93;;;4.70;;
76035;SDS011;64732;56.314;44.068;2023-12-20T03:33:28;10.40;;;5.18;;
76035;SDS011;64732;56.314;44.068;2023-12-20T03:35:49;11.80;;;5.10;;
76035;SDS011;64732;56.314;44.068;2023-12-20T03:38:10;14.13;;;5.63;;
76035;SDS011;64732;56.314;44.068;2023-12-20T03:40:31;14.13;;;5.63;;
76035;SDS011;64732;56.314;44.068;2023-12-20T03:42:52;10.35;;;4.38;;
76035;SDS011;64732;56.314;44.068;2023-12-20T03:45:16;8.18;;;3.38;;
76035;SDS011;64732;56.314;44.068;2023-12-20T03:47:37;10.52;;;4.80;;
76035;SDS011;64732;56.314;44.068;2023-12-20T03:49:58;11.18;;;5.32;;
76035;SDS011;64732;56.314;44.068;2023-12-20T03:52:19;10.52;;;5.05;;
76035;SDS011;64732;56.314;44.068;2023-12-20T03:54:40;6.00;;;3.38;;
76035;SDS011;64732;56.314;44.068;2023-12-20T03:57:01;10.55;;;4.63;;
76035;SDS011;64732;56.314;44.068;2023-12-20T03:59:22;7.18;;;3.88;;
76035;SDS011;64732;56.314;44.068;2023-12-20T04:01:46;4.88;;;2.97;;
76035;SDS011;64732;56.314;44.068;2023-12-20T04:04:07;8.80;;;4.40;;
76035;SDS011;64732;56.314;44.068;2023-12-20T04:06:28;12.52;;;5.75;;
76035;SDS011;64732;56.314;44.068;2023-12-20T04:08:49;10.75;;;4.97;;
76035;SDS011;64732;56.314;44.068;2023-12-20T04:11:10;10.85;;;4.90;;
76035;SDS011;64732;56.314;44.068;2023-12-20T04:13:31;9.80;;;5.07;;
76035;SDS011;64732;56.314;44.068;2023-12-20T04:15:52;18.05;;;8.38;;
76035;SDS011;64732;56.314;44.068;2023-12-20T04:18:16;13.65;;;6.57;;
76035;SDS011;64732;56.314;44.068;2023-12-20T04:20:38;10.00;;;5.03;;
76035;SDS011;64732;56.314;44.068;2023-12-20T04:22:59;16.05;;;7.78;;
76035;SDS011;64732;56.314;44.068;2023-12-20T04:25:20;22.60;;;9.07;;
76035;SDS011;64732;56.314;44.068;2023-12-20T04:27:41;21.52;;;7.80;;
76035;SDS011;64732;56.314;44.068;2023-12-20T04:30:02;10.38;;;5.22;;
76035;SDS011;64732;56.314;44.068;2023-12-20T04:32:27;18.65;;;7.70;;
76035;SDS011;64732;56.314;44.068;2023-12-20T04:34:51;13.75;;;6.18;;
76035;SDS011;64732;56.314;44.068;2023-12-20T04:37:12;8.45;;;4.00;;
76035;SDS011;64732;56.314;44.068;2023-12-20T04:39:33;12.05;;;5.80;;
76035;SDS011;64732;56.314;44.068;2023-12-20T04:41:54;12.23;;;4.18;;
76035;SDS011;64732;56.314;44.068;2023-12-20T04:44:15;15.52;;;6.70;;
76035;SDS011;64732;56.314;44.068;2023-12-20T04:46:36;13.90;;;5.65;;
76035;SDS011;64732;56.314;44.068;2023-12-20T04:48:57;12.60;;;5.32;;
76035;SDS011;64732;56.314;44.068;2023-12-20T04:51:21;15.88;;;6.75;;
76035;SDS011;64732;56.314;44.068;2023-12-20T04:53:42;8.88;;;4.47;;
76035;SDS011;64732;56.314;44.068;2023-12-20T04:56:04;15.80;;;7.35;;
76035;SDS011;64732;56.314;44.068;2023-12-20T04:58:25;14.98;;;6.15;;
76035;SDS011;64732;56.314;44.068;2023-12-20T05:00:46;11.73;;;4.80;;
76035;SDS011;64732;56.314;44.068;2023-12-20T05:03:07;11.90;;;5.50;;
76035;SDS011;64732;56.314;44.068;2023-12-20T05:05:29;12.30;;;5.07;;
76035;SDS011;64732;56.314;44.068;2023-12-20T05:07:52;12.60;;;4.82;;
76035;SDS011;64732;56.314;44.068;2023-12-20T05:10:16;12.32;;;4.97;;
76035;SDS011;64732;56.314;44.068;2023-12-20T05:12:37;10.25;;;4.65;;
76035;SDS011;64732;56.314;44.068;2023-12-20T05:14:58;17.88;;;7.80;;
76035;SDS011;64732;56.314;44.068;2023-12-20T05:17:19;13.00;;;6.25;;
76035;SDS011;64732;56.314;44.068;2023-12-20T05:19:40;14.55;;;6.72;;
76035;SDS011;64732;56.314;44.068;2023-12-20T05:22:01;14.82;;;5.72;;
76035;SDS011;64732;56.314;44.068;2023-12-20T05:24:25;16.20;;;7.45;;
76035;SDS011;64732;56.314;44.068;2023-12-20T05:26:46;14.45;;;7.13;;
76035;SDS011;64732;56.314;44.068;2023-12-20T05:29:07;11.77;;;5.22;;
76035;SDS011;64732;56.314;44.068;2023-12-20T05:31:28;15.65;;;6.25;;
76035;SDS011;64732;56.314;44.068;2023-12-20T05:33:49;15.68;;;7.05;;
76035;SDS011;64732;56.314;44.068;2023-12-20T05:36:10;16.50;;;6.45;;
76035;SDS011;64732;56.314;44.068;2023-12-20T05:38:32;21.42;;;9.05;;
76035;SDS011;64732;56.314;44.068;2023-12-20T05:40:56;11.40;;;5.93;;
76035;SDS011;64732;56.314;44.068;2023-12-20T05:43:17;12.35;;;5.05;;
76035;SDS011;64732;56.314;44.068;2023-12-20T05:45:38;16.80;;;7.50;;
76035;SDS011;64732;56.314;44.068;2023-12-20T05:47:59;20.58;;;8.55;;
76035;SDS011;64732;56.314;44.068;2023-12-20T05:50:20;16.50;;;6.80;;
76035;SDS011;64732;56.314;44.068;2023-12-20T05:52:41;15.45;;;6.07;;
76035;SDS011;64732;56.314;44.068;2023-12-20T05:55:03;12.65;;;5.72;;
76035;SDS011;64732;56.314;44.068;2023-12-20T05:57:31;7.97;;;2.97;;
76035;SDS011;64732;56.314;44.068;2023-12-20T05:59:52;10.02;;;4.80;;
76035;SDS011;64732;56.314;44.068;2023-12-20T06:02:13;13.68;;;6.07;;
76035;SDS011;64732;56.314;44.068;2023-12-20T06:04:36;10.80;;;5.22;;
76035;SDS011;64732;56.314;44.068;2023-12-20T06:06:57;14.77;;;6.72;;
76035;SDS011;64732;56.314;44.068;2023-12-20T06:09:19;8.55;;;4.10;;
76035;SDS011;64732;56.314;44.068;2023-12-20T06:11:40;12.32;;;5.72;;
76035;SDS011;64732;56.314;44.068;2023-12-20T06:14:03;10.90;;;5.07;;
76035;SDS011;64732;56.314;44.068;2023-12-20T06:16:25;13.98;;;6.60;;
76035;SDS011;64732;56.314;44.068;2023-12-20T06:18:55;13.27;;;5.57;;
76035;SDS011;64732;56.314;44.068;2023-12-20T06:21:16;12.88;;;5.03;;
76035;SDS011;64732;56.314;44.068;2023-12-20T06:23:37;13.13;;;5.88;;
76035;SDS011;64732;56.314;44.068;2023-12-20T06:25:58;63.78;;;17.25;;
76035;SDS011;64732;56.314;44.068;2023-12-20T06:28:19;37.63;;;11.65;;
76035;SDS011;64732;56.314;44.068;2023-12-20T06:30:43;22.15;;;8.27;;
76035;SDS011;64732;56.314;44.068;2023-12-20T06:33:04;10.15;;;4.30;;
76035;SDS011;64732;56.314;44.068;2023-12-20T06:35:25;13.45;;;5.60;;
76035;SDS011;64732;56.314;44.068;2023-12-20T06:37:47;12.05;;;5.13;;
76035;SDS011;64732;56.314;44.068;2023-12-20T06:40:08;11.05;;;5.13;;
76035;SDS011;64732;56.314;44.068;2023-12-20T06:42:30;11.13;;;5.07;;
76035;SDS011;64732;56.314;44.068;2023-12-20T06:44:51;11.10;;;5.20;;
76035;SDS011;64732;56.314;44.068;2023-12-20T06:47:15;13.82;;;6.32;;
76035;SDS011;64732;56.314;44.068;2023-12-20T06:49:36;10.10;;;4.45;;
76035;SDS011;64732;56.314;44.068;2023-12-20T06:51:57;14.68;;;5.30;;
76035;SDS011;64732;56.314;44.068;2023-12-20T06:54:18;11.43;;;4.80;;
76035;SDS011;64732;56.314;44.068;2023-12-20T06:56:39;12.02;;;4.63;;
76035;SDS011;64732;56.314;44.068;2023-12-20T06:59:00;21.48;;;7.15;;
76035;SDS011;64732;56.314;44.068;2023-12-20T07:01:22;11.70;;;5.35;;
76035;SDS011;64732;56.314;44.068;2023-12-20T07:03:46;10.48;;;5.15;;
76035;SDS011;64732;56.314;44.068;2023-12-20T07:06:09;17.10;;;5.55;;
76035;SDS011;64732;56.314;44.068;2023-12-20T07:08:31;7.43;;;3.72;;
76035;SDS011;64732;56.314;44.068;2023-12-20T07:10:52;11.07;;;4.72;;
76035;SDS011;64732;56.314;44.068;2023-12-20T07:13:13;10.68;;;5.43;;
76035;SDS011;64732;56.314;44.068;2023-12-20T07:15:34;11.55;;;5.25;;
76035;SDS011;64732;56.314;44.068;2023-12-20T07:17:55;8.07;;;3.75;;
76035;SDS011;64732;56.314;44.068;2023-12-20T07:20:19;8.93;;;3.67;;
76035;SDS011;64732;56.314;44.068;2023-12-20T07:22:40;9.27;;;4.20;;
76035;SDS011;64732;56.314;44.068;2023-12-20T07:25:02;8.30;;;3.55;;
76035;SDS011;64732;56.314;44.068;2023-12-20T07:27:25;7.80;;;3.90;;
76035;SDS011;64732;56.314;44.068;2023-12-20T07:29:46;19.25;;;6.35;;
76035;SDS011;64732;56.314;44.068;2023-12-20T07:32:07;17.13;;;7.15;;
76035;SDS011;64732;56.314;44.068;2023-12-20T07:34:28;10.25;;;4.88;;
76035;SDS011;64732;56.314;44.068;2023-12-20T07:36:52;18.33;;;7.53;;
76035;SDS011;64732;56.314;44.068;2023-12-20T07:39:15;21.42;;;9.48;;
76035;SDS011;64732;56.314;44.068;2023-12-20T07:41:36;29.67;;;10.65;;
76035;SDS011;64732;56.314;44.068;2023-12-20T07:43:57;21.92;;;9.48;;
76035;SDS011;64732;56.314;44.068;2023-12-20T07:46:18;20.13;;;10.25;;
76035;SDS011;64732;56.314;44.068;2023-12-20T07:48:39;10.88;;;5.68;;
76035;SDS011;64732;56.314;44.068;2023-12-20T07:51:01;19.90;;;8.55;;
76035;SDS011;64732;56.314;44.068;2023-12-20T07:53:24;15.88;;;10.35;;
76035;SDS011;64732;56.314;44.068;2023-12-20T07:55:48;13.85;;;6.82;;
76035;SDS011;64732;56.314;44.068;2023-12-20T07:58:09;10.25;;;4.93;;
76035;SDS011;64732;56.314;44.068;2023-12-20T08:00:31;8.00;;;4.65;;
76035;SDS011;64732;56.314;44.068;2023-12-20T08:02:52;8.52;;;3.70;;
76035;SDS011;64732;56.314;44.068;2023-12-20T08:05:13;11.98;;;5.03;;
76035;SDS011;64732;56.314;44.068;2023-12-20T08:07:34;8.60;;;2.70;;
76035;SDS011;64732;56.314;44.068;2023-12-20T08:09:58;4.40;;;2.22;;
76035;SDS011;64732;56.314;44.068;2023-12-20T08:12:20;7.97;;;3.55;;
76035;SDS011;64732;56.314;44.068;2023-12-20T08:14:41;12.23;;;4.63;;
76035;SDS011;64732;56.314;44.068;2023-12-20T08:17:02;8.90;;;3.92;;
76035;SDS011;64732;56.314;44.068;2023-12-20T08:19:24;10.07;;;4.10;;
76035;SDS011;64732;56.314;44.068;2023-12-20T08:21:45;14.50;;;3.97;;
76035;SDS011;64732;56.314;44.068;2023-12-20T08:24:07;5.90;;;2.88;;
76035;SDS011;64732;56.314;44.068;2023-12-20T08:26:32;8.98;;;4.28;;
76035;SDS011;64732;56.314;44.068;2023-12-20T08:28:53;8.98;;;4.38;;
76035;SDS011;64732;56.314;44.068;2023-12-20T08:31:14;5.28;;;2.30;;
76035;SDS011;64732;56.314;44.068;2023-12-20T08:33:36;6.97;;;3.38;;
76035;SDS011;64732;56.314;44.068;2023-12-20T08:35:57;7.38;;;3.30;;
76035;SDS011;64732;56.314;44.068;2023-12-20T08:38:18;8.50;;;2.78;;
76035;SDS011;64732;56.314;44.068;2023-12-20T08:40:39;5.82;;;2.33;;
76035;SDS011;64732;56.314;44.068;2023-12-20T08:43:03;8.27;;;3.65;;
76035;SDS011;64732;56.314;44.068;2023-12-20T08:45:24;7.13;;;3.35;;
76035;SDS011;64732;56.314;44.068;2023-12-20T08:47:45;4.18;;;2.03;;
76035;SDS011;64732;56.314;44.068;2023-12-20T08:50:07;6.63;;;2.42;;
76035;SDS011;64732;56.314;44.068;2023-12-20T08:52:28;6.25;;;2.17;;
76035;SDS011;64732;56.314;44.068;2023-12-20T08:54:50;4.15;;;2.15;;
76035;SDS011;64732;56.314;44.068;2023-12-20T08:57:11;6.43;;;2.60;;
76035;SDS011;64732;56.314;44.068;2023-12-20T08:59:35;5.82;;;2.33;;
76035;SDS011;64732;56.314;44.068;2023-12-20T09:01:56;5.70;;;2.35;;
76035;SDS011;64732;56.314;44.068;2023-12-20T09:04:17;6.28;;;2.70;;
76035;SDS011;64732;56.314;44.068;2023-12-20T09:06:38;7.10;;;2.63;;
76035;SDS011;64732;56.314;44.068;2023-12-20T09:08:59;8.82;;;2.85;;
76035;SDS011;64732;56.314;44.068;2023-12-20T09:11:20;4.90;;;2.45;;
76035;SDS011;64732;56.314;44.068;2023-12-20T09:13:42;6.10;;;3.65;;
76035;SDS011;64732;56.314;44.068;2023-12-20T09:16:06;7.00;;;2.28;;
76035;SDS011;64732;56.314;44.068;2023-12-20T09:18:28;5.90;;;2.50;;
76035;SDS011;64732;56.314;44.068;2023-12-20T09:20:49;8.35;;;2.97;;
76035;SDS011;64732;56.314;44.068;2023-12-20T09:23:16;4.22;;;2.55;;
76035;SDS011;64732;56.314;44.068;2023-12-20T09:25:37;8.80;;;3.13;;
76035;SDS011;64732;56.314;44.068;2023-12-20T09:27:58;8.18;;;3.17;;
76035;SDS011;64732;56.314;44.068;2023-12-20T09:30:20;6.47;;;2.90;;
76035;SDS011;64732;56.314;44.068;2023-12-20T09:32:44;4.95;;;2.83;;
76035;SDS011;64732;56.314;44.068;2023-12-20T09:35:06;6.53;;;2.85;;
76035;SDS011;64732;56.314;44.068;2023-12-20T09:37:28;9.48;;;4.28;;
76035;SDS011;64732;56.314;44.068;2023-12-20T09:39:49;6.75;;;3.80;;
76035;SDS011;64732;56.314;44.068;2023-12-20T09:42:11;4.50;;;2.13;;
76035;SDS011;64732;56.314;44.068;2023-12-20T09:44:32;5.68;;;2.70;;
76035;SDS011;64732;56.314;44.068;2023-12-20T09:46:57;8.93;;;3.67;;
76035;SDS011;64732;56.314;44.068;2023-12-20T09:49:21;7.72;;;2.63;;
76035;SDS011;64732;56.314;44.068;2023-12-20T09:51:42;5.70;;;3.05;;
76035;SDS011;64732;56.314;44.068;2023-12-20T09:54:04;9.38;;;3.75;;
76035;SDS011;64732;56.314;44.068;2023-12-20T09:56:25;8.52;;;4.05;;
76035;SDS011;64732;56.314;44.068;2023-12-20T09:58:46;8.75;;;3.00;;
76035;SDS011;64732;56.314;44.068;2023-12-20T10:01:07;9.57;;;4.10;;
76035;SDS011;64732;56.314;44.068;2023-12-20T10:03:28;11.65;;;4.78;;
76035;SDS011;64732;56.314;44.068;2023-12-20T10:05:53;10.23;;;4.13;;
76035;SDS011;64732;56.314;44.068;2023-12-20T10:08:15;14.70;;;6.97;;
76035;SDS011;64732;56.314;44.068;2023-12-20T10:10:36;13.70;;;7.03;;
76035;SDS011;64732;56.314;44.068;2023-12-20T10:13:04;16.00;;;7.57;;
76035;SDS011;64732;56.314;44.068;2023-12-20T10:15:25;13.38;;;6.30;;
76035;SDS011;64732;56.314;44.068;2023-12-20T10:17:48;11.77;;;6.40;;
76035;SDS011;64732;56.314;44.068;2023-12-20T10:20:10;10.38;;;5.00;;
76035;SDS011;64732;56.314;44.068;2023-12-20T10:22:34;13.55;;;5.78;;
76035;SDS011;64732;56.314;44.068;2023-12-20T10:24:56;13.48;;;4.32;;
76035;SDS011;64732;56.314;44.068;2023-12-20T10:27:17;12.40;;;4.90;;
76035;SDS011;64732;56.314;44.068;2023-12-20T10:29:40;9.98;;;4.38;;
76035;SDS011;64732;56.314;44.068;2023-12-20T10:32:14;11.65;;;4.82;;
76035;SDS011;64732;56.314;44.068;2023-12-20T10:34:42;8.68;;;3.65;;
76035;SDS011;64732;56.314;44.068;2023-12-20T10:37:03;6.20;;;3.00;;
76035;SDS011;64732;56.314;44.068;2023-12-20T10:39:27;6.63;;;2.95;;
76035;SDS011;64732;56.314;44.068;2023-12-20T10:41:57;4.90;;;2.67;;
76035;SDS011;64732;56.314;44.068;2023-12-20T10:44:18;9.23;;;4.10;;
76035;SDS011;64732;56.314;44.068;2023-12-20T10:46:40;8.57;;;3.85;;
76035;SDS011;64732;56.314;44.068;2023-12-20T10:49:02;4.68;;;2.83;;
76035;SDS011;64732;56.314;44.068;2023-12-20T10:51:23;6.88;;;3.95;;
76035;SDS011;64732;56.314;44.068;2023-12-20T10:53:45;11.50;;;4.07;;
76035;SDS011;64732;56.314;44.068;2023-12-20T10:56:11;4.20;;;2.55;;
76035;SDS011;64732;56.314;44.068;2023-12-20T10:58:34;12.32;;;3.88;;
76035;SDS011;64732;56.314;44.068;2023-12-20T11:01:00;6.85;;;2.97;;
76035;SDS011;64732;56.314;44.068;2023-12-20T11:03:22;9.30;;;3.92;;
76035;SDS011;64732;56.314;44.068;2023-12-20T11:05:44;5.43;;;2.55;;
76035;SDS011;64732;56.314;44.068;2023-12-20T11:08:10;6.30;;;2.60;;
76035;SDS011;64732;56.314;44.068;2023-12-20T11:10:35;7.07;;;3.35;;
76035;SDS011;64732;56.314;44.068;2023-12-20T11:13:06;4.88;;;2.72;;
76035;SDS011;64732;56.314;44.068;2023-12-20T11:15:30;5.47;;;2.97;;
76035;SDS011;64732;56.314;44.068;2023-12-20T11:17:54;6.25;;;3.28;;
76035;SDS011;64732;56.314;44.068;2023-12-20T11:20:15;8.18;;;3.42;;
76035;SDS011;64732;56.314;44.068;2023-12-20T11:22:36;5.97;;;3.10;;
76035;SDS011;64732;56.314;44.068;2023-12-20T11:24:58;5.32;;;2.58;;
76035;SDS011;64732;56.314;44.068;2023-12-20T11:27:25;5.32;;;3.47;;
76035;SDS011;64732;56.314;44.068;2023-12-20T11:29:52;8.98;;;3.55;;
76035;SDS011;64732;56.314;44.068;2023-12-20T11:34:50;4.38;;;2.13;;
76035;SDS011;64732;56.314;44.068;2023-12-20T11:37:12;9.82;;;3.20;;
76035;SDS011;64732;56.314;44.068;2023-12-20T11:39:34;6.68;;;2.40;;
76035;SDS011;64732;56.314;44.068;2023-12-20T11:41:55;10.02;;;3.45;;
76035;SDS011;64732;56.314;44.068;2023-12-20T11:44:17;5.75;;;2.80;;
76035;SDS011;64732;56.314;44.068;2023-12-20T11:46:41;6.57;;;2.97;;
76035;SDS011;64732;56.314;44.068;2023-12-20T11:49:02;6.38;;;2.92;;
76035;SDS011;64732;56.314;44.068;2023-12-20T11:51:23;13.43;;;5.93;;
76035;SDS011;64732;56.314;44.068;2023-12-20T11:53:44;10.45;;;5.32;;
76035;SDS011;64732;56.314;44.068;2023-12-20T11:56:06;7.85;;;3.90;;
76035;SDS011;64732;56.314;44.068;2023-12-20T11:58:27;10.70;;;3.67;;
76035;SDS011;64732;56.314;44.068;2023-12-20T12:00:49;5.55;;;3.08;;
76035;SDS011;64732;56.314;44.068;2023-12-20T12:03:14;8.63;;;3.55;;
76035;SDS011;64732;56.314;44.068;2023-12-20T12:05:35;10.18;;;5.10;;
76035;SDS011;64732;56.314;44.068;2023-12-20T12:07:56;8.55;;;4.15;;
76035;SDS011;64732;56.314;44.068;2023-12-20T12:10:18;13.65;;;4.70;;
76035;SDS011;64732;56.314;44.068;2023-12-20T12:12:40;9.70;;;5.10;;
76035;SDS011;64732;56.314;44.068;2023-12-20T12:15:01;12.20;;;5.85;;
76035;SDS011;64732;56.314;44.068;2023-12-20T12:17:25;10.15;;;4.47;;
76035;SDS011;64732;56.314;44.068;2023-12-20T12:19:49;11.48;;;4.95;;
76035;SDS011;64732;56.314;44.068;2023-12-20T12:22:10;11.32;;;5.03;;
76035;SDS011;64732;56.314;44.068;2023-12-20T12:24:32;13.35;;;5.15;;
76035;SDS011;64732;56.314;44.068;2023-12-20T12:26:56;15.18;;;5.60;;
76035;SDS011;64732;56.314;44.068;2023-12-20T12:29:18;11.45;;;5.07;;
76035;SDS011;64732;56.314;44.068;2023-12-20T12:31:39;13.98;;;5.20;;
76035;SDS011;64732;56.314;44.068;2023-12-20T12:34:00;8.18;;;4.68;;
76035;SDS011;64732;56.314;44.068;2023-12-20T12:36:24;13.05;;;3.92;;
76035;SDS011;64732;56.314;44.068;2023-12-20T12:38:45;16.48;;;6.50;;
76035;SDS011;64732;56.314;44.068;2023-12-20T12:41:06;8.05;;;4.35;;
76035;SDS011;64732;56.314;44.068;2023-12-20T12:43:27;13.20;;;4.95;;
76035;SDS011;64732;56.314;44.068;2023-12-20T12:45:49;11.20;;;4.57;;
76035;SDS011;64732;56.314;44.068;2023-12-20T12:48:10;8.10;;;3.17;;
76035;SDS011;64732;56.314;44.068;2023-12-20T12:50:31;9.55;;;4.88;;
76035;SDS011;64732;56.314;44.068;2023-12-20T12:52:55;10.13;;;4.40;;
76035;SDS011;64732;56.314;44.068;2023-12-20T12:55:16;13.25;;;4.95;;
76035;SDS011;64732;56.314;44.068;2023-12-20T12:57:37;8.85;;;3.80;;
76035;SDS011;64732;56.314;44.068;2023-12-20T12:59:58;9.00;;;3.53;;
76035;SDS011;64732;56.314;44.068;2023-12-20T13:02:20;9.02;;;3.90;;
76035;SDS011;64732;56.314;44.068;2023-12-20T13:04:43;10.18;;;4.93;;
76035;SDS011;64732;56.314;44.068;2023-12-20T13:07:04;9.98;;;4.53;;
76035;SDS011;64732;56.314;44.068;2023-12-20T13:09:29;8.25;;;3.65;;
76035;SDS011;64732;56.314;44.068;2023-12-20T13:11:51;8.80;;;4.53;;
76035;SDS011;64732;56.314;44.068;2023-12-20T13:14:12;10.80;;;5.40;;
76035;SDS011;64732;56.314;44.068;2023-12-20T13:16:33;15.57;;;3.53;;
76035;SDS011;64732;56.314;44.068;2023-12-20T13:18:54;11.38;;;4.93;;
76035;SDS011;64732;56.314;44.068;2023-12-20T13:21:15;9.98;;;5.15;;
76035;SDS011;64732;56.314;44.068;2023-12-20T13:23:36;9.93;;;3.70;;
76035;SDS011;64732;56.314;44.068;2023-12-20T13:26:00;6.95;;;3.83;;
76035;SDS011;64732;56.314;44.068;2023-12-20T13:28:21;9.35;;;4.05;;
76035;SDS011;64732;56.314;44.068;2023-12-20T13:30:42;10.65;;;4.22;;
76035;SDS011;64732;56.314;44.068;2023-12-20T13:33:03;10.95;;;5.65;;
76035;SDS011;64732;56.314;44.068;2023-12-20T13:35:25;15.90;;;7.40;;
76035;SDS011;64732;56.314;44.068;2023-12-20T13:37:46;13.88;;;6.35;;
76035;SDS011;64732;56.314;44.068;2023-12-20T13:40:07;15.68;;;7.88;;
76035;SDS011;64732;56.314;44.068;2023-12-20T13:42:32;8.98;;;4.63;;
76035;SDS011;64732;56.314;44.068;2023-12-20T13:44:53;13.82;;;7.22;;
76035;SDS011;64732;56.314;44.068;2023-12-20T13:47:14;14.25;;;7.43;;
76035;SDS011;64732;56.314;44.068;2023-12-20T13:49:35;11.23;;;4.20;;
76035;SDS011;64732;56.314;44.068;2023-12-20T13:51:57;8.13;;;3.70;;
76035;SDS011;64732;56.314;44.068;2023-12-20T13:54:18;13.32;;;6.47;;
76035;SDS011;64732;56.314;44.068;2023-12-20T13:56:39;12.88;;;7.50;;